Time;durP1;ratioP1;P1;durP2;ratioP2;P2;SDS_P1;SDS_P2;PMS_P1;PMS_P2;Temp;Humidity;BMP_temperature;BMP_pressure;BME280_temperature;BME280_humidity;BME280_pressure;Samples;Min_cycle;Max_cycle;Signal;HPM_P1;HPM_P2
2024/01/23 00:00:30;;;;;;;14.50;9.40;;;;;;;3.82;81.16;100095.20;137210;1276;22428;-83
2024/01/23 00:03:33;;;;;;;;;;;;;;;3.84;81.40;100100.60;136989;1276;22410;-80
2024/01/23 00:06:33;;;;;;;14.80;9.10;;;;;;;3.85;81.34;100101.55;137095;1276;22365;-83
2024/01/23 00:09:34;;;;;;;13.90;8.70;;;;;;;3.84;81.48;100097.98;137148;1276;22346;-83
2024/01/23 00:12:35;;;;;;;13.50;8.30;;;;;;;3.82;81.43;100099.66;137152;1276;22367;-83
2024/01/23 00:15:36;;;;;;;13.80;8.80;;;;;;;3.82;81.52;100102.48;137123;1276;22356;-82
2024/01/23 00:18:41;;;;;;;15.50;8.60;;;;;;;3.82;81.73;100103.73;137089;1276;23511;-83
2024/01/23 00:21:42;;;;;;;13.90;8.60;;;;;;;3.85;81.72;100107.93;137156;1276;22403;-84
2024/01/23 00:24:43;;;;;;;13.30;8.80;;;;;;;3.86;82.02;100122.13;136977;1276;22389;-84
2024/01/23 00:27:44;;;;;;;13.70;7.90;;;;;;;3.84;82.03;100133.17;137163;1276;22358;-84
2024/01/23 00:30:44;;;;;;;11.10;8.00;;;;;;;3.81;82.51;100131.08;137179;1276;22842;-83
2024/01/23 00:33:45;;;;;;;;;;;;;;;3.84;83.40;100121.29;137106;1275;22434;-83
2024/01/23 00:36:46;;;;;;;12.00;7.90;;;;;;;3.86;83.59;100123.38;137141;1276;22433;-83
2024/01/23 00:39:46;;;;;;;11.50;7.70;;;;;;;3.86;83.62;100130.74;137141;1276;23179;-83
2024/01/23 00:42:47;;;;;;;12.10;7.80;;;;;;;3.84;83.80;100127.02;137120;1276;22372;-80
2024/01/23 00:45:48;;;;;;;;;;;;;;;3.82;84.40;100118.94;137136;1276;22390;-84
2024/01/23 00:48:48;;;;;;;12.10;7.70;;;;;;;3.82;84.25;100119.65;137172;1277;22451;-82
2024/01/23 00:51:49;;;;;;;10.80;7.40;;;;;;;3.81;84.04;100126.02;137134;1276;22432;-84
2024/01/23 00:54:50;;;;;;;10.80;7.20;;;;;;;3.80;84.20;100123.16;137096;1276;22349;-83
2024/01/23 00:57:51;;;;;;;;;;;;;;;3.80;84.06;100121.73;137127;1276;23133;-84
2024/01/23 01:00:51;;;;;;;14.50;9.00;;;;;;;3.81;84.49;100122.38;136951;1276;22243;-81
2024/01/23 01:03:52;;;;;;;;;;;;;;;3.82;84.46;100122.94;137142;1273;22423;-83
2024/01/23 01:06:53;;;;;;;13.00;8.40;;;;;;;3.85;84.43;100121.17;137156;1276;22827;-83
2024/01/23 01:09:57;;;;;;;11.50;7.60;;;;;;;3.88;84.66;100126.23;137149;1276;22407;-83
2024/01/23 01:12:58;;;;;;;12.00;8.00;;;;;;;3.90;84.91;100123.73;136948;1277;22346;-83
2024/01/23 01:15:59;;;;;;;9.50;7.10;;;;;;;3.92;85.19;100129.03;137164;1277;22390;-82
2024/01/23 01:19:00;;;;;;;11.70;8.10;;;;;;;3.92;85.28;100123.06;137119;1276;22173;-82
2024/01/23 01:22:00;;;;;;;10.80;7.40;;;;;;;3.90;85.11;100121.08;137132;1277;22344;-83
2024/01/23 01:25:01;;;;;;;11.80;7.00;;;;;;;3.88;85.58;100117.30;137199;1276;22354;-83
2024/01/23 01:28:03;;;;;;;13.20;7.30;;;;;;;3.87;85.31;100116.69;137179;1276;22349;-83
2024/01/23 01:31:04;;;;;;;12.60;7.60;;;;;;;3.86;85.49;100112.67;137178;1276;22352;-83
2024/01/23 01:34:05;;;;;;;10.80;7.20;;;;;;;3.86;85.93;100117.95;137134;1276;22377;-82
2024/01/23 01:37:05;;;;;;;;;;;;;;;3.85;85.56;100115.73;137166;1275;22391;-81
2024/01/23 01:40:06;;;;;;;14.60;7.40;;;;;;;3.83;85.66;100113.44;137138;1276;23141;-83
2024/01/23 01:43:22;;;;;;;14.10;6.90;;;;;;;3.81;85.23;100114.50;137173;1276;22352;-83
2024/01/23 01:46:25;;;;;;;10.20;6.70;;;;;;;3.78;85.35;100110.38;137180;1276;22298;-83
2024/01/23 01:49:27;;;;;;;9.60;6.10;;;;;;;3.76;85.45;100118.02;137169;1276;22453;-83
2024/01/23 01:52:31;;;;;;;9.60;6.60;;;;;;;3.75;85.61;100114.98;137139;1273;22377;-83
2024/01/23 01:55:34;;;;;;;8.60;5.70;;;;;;;3.75;85.62;100108.31;137160;1276;22366;-83
2024/01/23 01:58:36;;;;;;;10.00;6.20;;;;;;;3.76;85.90;100111.72;137171;1276;22345;-83
2024/01/23 02:01:37;;;;;;;9.50;6.10;;;;;;;3.75;85.52;100116.73;137136;1276;22358;-82
2024/01/23 02:04:41;;;;;;;9.50;5.90;;;;;;;3.75;86.04;100120.09;137211;1276;23132;-82
2024/01/23 02:07:43;;;;;;;10.20;6.30;;;;;;;3.75;86.36;100119.15;137188;1276;22362;-82
2024/01/23 02:10:45;;;;;;;9.60;6.50;;;;;;;3.76;86.23;100118.90;137158;1276;22222;-82
2024/01/23 02:13:46;;;;;;;9.70;5.80;;;;;;;3.77;86.21;100128.33;137174;1276;22363;-82
2024/01/23 02:16:54;;;;;;;10.20;6.30;;;;;;;3.75;86.12;100128.08;136963;1276;22356;-83
2024/01/23 02:19:55;;;;;;;9.50;6.50;;;;;;;3.76;86.49;100128.70;137134;1276;22393;-82
2024/01/23 02:23:02;;;;;;;10.50;7.20;;;;;;;3.77;86.59;100129.86;136977;1276;22351;-82
2024/01/23 02:26:07;;;;;;;8.80;6.90;;;;;;;3.78;86.36;100133.95;137163;1276;22226;-83
2024/01/23 02:29:15;;;;;;;11.40;6.90;;;;;;;3.79;86.26;100143.02;137139;1276;22313;-82
2024/01/23 02:32:22;;;;;;;11.50;6.60;;;;;;;3.78;86.15;100159.02;137154;1276;22210;-82
2024/01/23 02:35:27;;;;;;;12.80;6.90;;;;;;;3.70;86.09;100180.52;137125;1276;22412;-82
2024/01/23 02:38:32;;;;;;;12.50;7.10;;;;;;;3.58;85.73;100162.29;137178;1276;22340;-83
2024/01/23 02:41:34;;;;;;;13.70;7.50;;;;;;;3.52;85.74;100165.95;137176;1276;22395;-82
2024/01/23 02:44:45;;;;;;;10.10;7.10;;;;;;;3.44;85.77;100163.10;137143;1276;22422;-82
2024/01/23 02:47:53;;;;;;;10.40;7.00;;;;;;;3.34;85.46;100169.60;137138;1276;22999;-82
2024/01/23 02:50:58;;;;;;;9.20;6.60;;;;;;;3.27;85.70;100165.67;137162;1276;22293;-82
2024/01/23 02:54:04;;;;;;;11.70;7.50;;;;;;;3.24;85.83;100165.88;137174;1276;22362;-83
2024/01/23 02:57:08;;;;;;;10.70;7.30;;;;;;;3.23;85.85;100161.42;136732;1276;22469;-82
2024/01/23 03:00:10;;;;;;;14.00;8.60;;;;;;;3.22;86.08;100167.21;137167;1276;22380;-82
2024/01/23 03:03:11;;;;;;;12.90;8.10;;;;;;;3.19;85.77;100167.66;137173;1276;23024;-82
2024/01/23 03:06:12;;;;;;;;;;;;;;;3.14;85.76;100158.79;136963;1276;23627;-82
2024/01/23 03:09:13;;;;;;;10.30;7.20;;;;;;;3.11;86.00;100164.40;137162;1273;23051;-82
2024/01/23 03:12:14;;;;;;;;;;;;;;;3.10;86.08;100164.15;137204;1276;22383;-82
2024/01/23 03:15:15;;;;;;;;;;;;;;;3.10;86.23;100160.48;137166;1276;23411;-82
2024/01/23 03:18:19;;;;;;;12.10;7.40;;;;;;;3.11;86.60;100165.25;137161;1276;23272;-82
2024/01/23 03:21:20;;;;;;;9.20;6.90;;;;;;;3.10;86.48;100161.14;137146;1276;23331;-82
2024/01/23 03:24:21;;;;;;;;;;;;;;;3.10;86.53;100162.58;137160;1276;23214;-82
2024/01/23 03:27:22;;;;;;;11.10;7.80;;;;;;;3.11;86.98;100160.20;136986;1276;23104;-82
2024/01/23 03:30:29;;;;;;;;;;;;;;;3.14;87.16;100164.85;137180;1276;23005;-82
2024/01/23 03:33:30;;;;;;;12.30;7.20;;;;;;;3.18;87.18;100161.42;137112;1273;23104;-81
2024/01/23 03:36:31;;;;;;;12.10;7.00;;;;;;;3.24;87.59;100161.69;137163;1276;23015;-82
2024/01/23 03:39:32;;;;;;;13.00;7.30;;;;;;;3.29;87.77;100164.91;137177;1276;22975;-82
2024/01/23 03:42:33;;;;;;;17.00;6.80;;;;;;;3.34;87.70;100168.73;136985;1276;23076;-82
2024/01/23 03:45:33;;;;;;;;;;;;;;;3.38;87.71;100171.92;137137;1276;23084;-82
2024/01/23 03:48:37;;;;;;;9.90;6.80;;;;;;;3.42;87.73;100173.04;137152;1276;23114;-82
2024/01/23 03:51:37;;;;;;;12.10;6.90;;;;;;;3.47;87.69;100174.26;137187;1276;22317;-82
2024/01/23 03:54:38;;;;;;;11.90;7.60;;;;;;;3.51;87.97;100180.39;137175;1275;22243;-82
2024/01/23 03:57:39;;;;;;;10.70;7.10;;;;;;;3.56;87.76;100186.98;137181;1273;22386;-82
2024/01/23 04:00:40;;;;;;;12.70;7.80;;;;;;;3.58;87.67;100189.40;137171;1276;23149;-82
2024/01/23 04:03:40;;;;;;;13.00;7.10;;;;;;;3.59;87.48;100186.91;137179;1276;23092;-82
2024/01/23 04:06:41;;;;;;;11.60;6.90;;;;;;;3.62;87.70;100186.20;137154;1276;22382;-81
2024/01/23 04:09:42;;;;;;;13.50;7.60;;;;;;;3.65;87.77;100190.50;137116;1276;23868;-82
2024/01/23 04:12:43;;;;;;;11.60;7.00;;;;;;;3.67;87.76;100192.77;137159;1276;22353;-82
2024/01/23 04:15:44;;;;;;;11.50;6.90;;;;;;;3.70;88.12;100188.35;137180;1276;23143;-82
2024/01/23 04:18:44;;;;;;;12.20;7.70;;;;;;;3.75;87.93;100186.71;137177;1276;22352;-82
2024/01/23 04:21:46;;;;;;;9.30;6.60;;;;;;;3.79;87.65;100193.91;137139;1276;22428;-82
2024/01/23 04:24:47;;;;;;;9.70;5.90;;;;;;;3.83;87.78;100193.98;137128;1276;22386;-82
2024/01/23 04:27:48;;;;;;;;;;;;;;;3.86;87.56;100195.17;137199;1276;22371;-82
2024/01/23 04:30:52;;;;;;;14.10;7.40;;;;;;;3.88;87.57;100203.54;137193;1276;22356;-82
2024/01/23 04:33:53;;;;;;;12.10;6.70;;;;;;;3.91;87.38;100204.70;137144;1276;22194;-82
2024/01/23 04:36:58;;;;;;;13.80;7.00;;;;;;;3.92;87.62;100206.04;137172;1276;22993;-82
2024/01/23 04:39:59;;;;;;;12.00;6.60;;;;;;;3.94;87.15;100207.62;137167;1273;22389;-82
2024/01/23 04:43:00;;;;;;;10.20;6.40;;;;;;;3.95;87.37;100209.60;137129;1276;23153;-82
2024/01/23 04:46:01;;;;;;;;;;;;;;;3.96;86.84;100200.95;137172;1276;22415;-82
2024/01/23 04:49:04;;;;;;;10.70;6.10;;;;;;;3.97;86.88;100202.85;136973;1276;22351;-82
2024/01/23 04:52:05;;;;;;;10.90;5.90;;;;;;;3.97;86.97;100207.39;137152;1276;22386;-81
2024/01/23 04:55:08;;;;;;;9.30;6.10;;;;;;;3.95;86.89;100211.92;137158;1274;22315;-82
2024/01/23 04:58:09;;;;;;;10.20;6.00;;;;;;;3.96;86.99;100215.69;137155;1276;22343;-82
2024/01/23 05:01:10;;;;;;;;;;;;;;;3.99;86.98;100214.05;137175;1276;22394;-81
2024/01/23 05:04:10;;;;;;;11.80;5.70;;;;;;;4.02;87.03;100214.11;137116;1276;22388;-82
2024/01/23 05:07:11;;;;;;;;;;;;;;;4.08;86.73;100215.66;137144;1276;22379;-81
2024/01/23 05:10:12;;;;;;;7.50;4.90;;;;;;;4.08;86.63;100214.36;137140;1276;22349;-82
2024/01/23 05:13:13;;;;;;;;;;;;;;;4.11;86.60;100213.82;137151;1273;22855;-81
2024/01/23 05:16:14;;;;;;;8.50;4.60;;;;;;;4.13;86.43;100210.66;137177;1276;22361;-81
2024/01/23 05:19:15;;;;;;;11.50;5.00;;;;;;;4.16;86.52;100215.14;137156;1276;22333;-81
2024/01/23 05:22:16;;;;;;;7.60;4.50;;;;;;;4.19;86.31;100226.45;137166;1276;22325;-81
2024/01/23 05:25:17;;;;;;;10.20;5.30;;;;;;;4.18;86.07;100229.70;137086;1271;22356;-82
2024/01/23 05:28:18;;;;;;;9.80;5.90;;;;;;;4.16;86.08;100236.52;137150;1276;22312;-81
2024/01/23 05:31:19;;;;;;;9.00;5.90;;;;;;;4.08;85.93;100253.05;137110;1276;22253;-82
2024/01/23 05:34:19;;;;;;;;;;;;;;;4.00;85.77;100252.79;137132;1276;22367;-81
2024/01/23 05:37:21;;;;;;;10.60;5.70;;;;;;;3.95;85.88;100258.83;137117;1276;22347;-80
2024/01/23 05:40:22;;;;;;;13.90;5.60;;;;;;;3.89;85.88;100259.34;137112;1270;22344;-81
2024/01/23 05:43:22;;;;;;;;;;;;;;;3.79;85.73;100255.50;137074;1276;22395;-81
2024/01/23 05:46:23;;;;;;;8.60;5.50;;;;;;;3.70;85.66;100257.81;137083;1276;22355;-81
2024/01/23 05:49:24;;;;;;;13.10;6.40;;;;;;;3.64;85.87;100267.41;137134;1276;22352;-81
2024/01/23 05:52:25;;;;;;;10.30;5.90;;;;;;;3.56;85.83;100264.05;137118;1276;22432;-81
2024/01/23 05:55:26;;;;;;;9.30;5.60;;;;;;;3.52;85.95;100259.91;137115;1269;22413;-81
2024/01/23 05:58:26;;;;;;;;;;;;;;;3.47;85.82;100257.10;137141;1276;22383;-81
2024/01/23 06:01:31;;;;;;;11.10;5.80;;;;;;;3.42;85.90;100254.20;137122;1276;22419;-81
2024/01/23 06:04:32;;;;;;;14.70;5.70;;;;;;;3.36;85.90;100258.45;137110;1276;22346;-82
2024/01/23 06:07:38;;;;;;;;;;;;;;;3.33;85.88;100266.96;137145;1276;22377;-81
2024/01/23 06:10:39;;;;;;;10.60;5.70;;;;;;;3.30;85.93;100267.73;137123;1276;22369;-75
2024/01/23 06:13:40;;;;;;;13.00;5.40;;;;;;;3.28;86.17;100270.64;137100;1276;22393;-74
2024/01/23 06:16:44;;;;;;;12.50;5.90;;;;;;;3.29;86.10;100272.48;137135;1276;22510;-74
2024/01/23 06:19:45;;;;;;;11.20;5.80;;;;;;;3.29;86.35;100275.61;137095;1276;22426;-71
2024/01/23 06:22:45;;;;;;;14.90;5.60;;;;;;;3.29;86.19;100287.72;137143;1276;22450;-74
2024/01/23 06:25:49;;;;;;;10.80;5.30;;;;;;;3.26;86.37;100295.27;137160;1276;22407;-74
2024/01/23 06:28:49;;;;;;;11.00;6.20;;;;;;;3.22;86.21;100291.39;137121;1276;22431;-78
2024/01/23 06:31:53;;;;;;;13.20;8.90;;;;;;;3.18;86.16;100289.75;137078;1276;22362;-74
2024/01/23 06:34:54;;;;;;;18.40;10.10;;;;;;;3.13;86.04;100298.98;137110;1276;22364;-73
2024/01/23 06:37:55;;;;;;;22.30;12.20;;;;;;;3.08;85.80;100304.45;137122;1270;22436;-72
2024/01/23 06:40:56;;;;;;;31.60;16.70;;;;;;;3.02;86.13;100303.48;137131;1270;22498;-73
2024/01/23 06:43:56;;;;;;;23.70;12.60;;;;;;;2.99;85.96;100324.38;137097;1276;22279;-73
2024/01/23 06:46:57;;;;;;;;;;;;;;;2.97;86.05;100331.50;137127;1276;22397;-73
2024/01/23 06:49:58;;;;;;;20.60;8.30;;;;;;;2.90;86.25;100332.66;137142;1276;22269;-75
2024/01/23 06:52:58;;;;;;;;;;;;;;;2.88;86.67;100330.09;137124;1272;22380;-74
2024/01/23 06:55:59;;;;;;;15.70;8.00;;;;;;;2.87;87.14;100332.63;137114;1270;22386;-75
2024/01/23 06:59:01;;;;;;;17.00;8.20;;;;;;;2.87;87.46;100334.34;137153;1276;22358;-75
2024/01/23 07:02:01;;;;;;;14.10;9.20;;;;;;;2.88;87.55;100341.57;137134;1276;22372;-74
2024/01/23 07:05:02;;;;;;;;;;;;;;;2.89;87.50;100351.80;137099;1276;22387;-74
2024/01/23 07:08:03;;;;;;;13.50;7.50;;;;;;;2.90;87.42;100358.59;137157;1276;22216;-74
2024/01/23 07:11:04;;;;;;;18.80;7.80;;;;;;;2.90;87.45;100365.71;137143;1269;22370;-74
2024/01/23 07:14:04;;;;;;;11.70;7.30;;;;;;;2.92;87.68;100374.32;137076;1276;22248;-74
2024/01/23 07:17:05;;;;;;;15.10;8.00;;;;;;;2.94;87.69;100374.55;137130;1276;22370;-74
2024/01/23 07:20:10;;;;;;;17.40;11.60;;;;;;;2.97;87.88;100375.35;137158;1276;22346;-74
2024/01/23 07:23:11;;;;;;;17.80;8.10;;;;;;;3.01;87.89;100383.14;137118;1276;22356;-74
2024/01/23 07:26:11;;;;;;;13.80;6.90;;;;;;;3.04;88.14;100395.62;137161;1276;22423;-74
2024/01/23 07:29:12;;;;;;;17.20;8.50;;;;;;;3.06;88.21;100405.77;137093;1276;22382;-74
2024/01/23 07:32:13;;;;;;;22.50;10.30;;;;;;;3.07;88.24;100423.05;137140;1276;22374;-74
2024/01/23 07:35:14;;;;;;;23.40;10.00;;;;;;;3.05;88.27;100439.27;137112;1276;22237;-74
2024/01/23 07:38:15;;;;;;;19.10;10.60;;;;;;;3.03;88.11;100446.93;137096;1276;22374;-74
2024/01/23 07:41:16;;;;;;;;;;;;;;;3.00;88.18;100451.85;137130;1270;23118;-74
2024/01/23 07:44:16;;;;;;;;;;;;;;;2.95;88.35;100445.45;136987;1276;22413;-74
2024/01/23 07:47:17;;;;;;;25.30;12.00;;;;;;;2.92;88.94;100444.73;137125;1276;22380;-74
2024/01/23 07:50:18;;;;;;;;;;;;;;;2.92;89.20;100451.23;137137;1276;22463;-73
2024/01/23 07:53:18;;;;;;;27.70;10.60;;;;;;;2.95;89.30;100451.70;137091;1269;22347;-76
2024/01/23 07:56:19;;;;;;;17.50;9.80;;;;;;;3.00;89.93;100453.06;137051;1276;22224;-75
2024/01/23 07:59:20;;;;;;;;;;;;;;;3.06;90.11;100446.38;137025;1270;22384;-73
2024/01/23 08:02:21;;;;;;;18.80;8.90;;;;;;;3.11;90.49;100447.91;137080;1276;22362;-74
2024/01/23 08:05:22;;;;;;;24.20;11.30;;;;;;;3.15;90.63;100449.36;137068;1276;22362;-74
2024/01/23 08:08:29;;;;;;;25.30;11.30;;;;;;;3.20;90.45;100458.17;137140;1276;22914;-71
2024/01/23 08:11:30;;;;;;;17.90;9.60;;;;;;;3.25;90.36;100461.30;137151;1276;22314;-71
2024/01/23 08:14:32;;;;;;;23.10;9.50;;;;;;;3.37;90.90;100460.00;137028;1276;22339;-72
2024/01/23 08:17:32;;;;;;;20.90;9.10;;;;;;;3.49;91.05;100464.23;136867;1276;22298;-71
2024/01/23 08:20:33;;;;;;;;;;;;;;;3.52;91.05;100469.23;137057;1276;22414;-71
2024/01/23 08:23:34;;;;;;;19.20;7.50;;;;;;;3.48;91.05;100463.58;137039;1273;23057;-71
2024/01/23 08:26:35;;;;;;;15.30;7.20;;;;;;;3.47;91.45;100471.56;137075;1276;22397;-72
2024/01/23 08:29:36;;;;;;;19.70;7.60;;;;;;;3.54;91.58;100478.02;137086;1270;23132;-71
2024/01/23 08:32:37;;;;;;;15.70;6.90;;;;;;;3.64;91.66;100483.48;137075;1276;22223;-72
2024/01/23 08:35:40;;;;;;;14.50;6.40;;;;;;;3.70;91.66;100485.73;137066;1276;22891;-71
2024/01/23 08:38:41;;;;;;;17.00;6.00;;;;;;;3.74;91.29;100494.20;137076;1276;22349;-71
2024/01/23 08:41:42;;;;;;;13.40;5.10;;;;;;;3.76;91.25;100501.93;137073;1270;23207;-71
2024/01/23 08:44:49;;;;;;;12.50;5.00;;;;;;;3.86;91.22;100499.08;137058;1276;22413;-71
2024/01/23 08:47:49;;;;;;;10.90;4.70;;;;;;;4.15;91.64;100499.40;137069;1276;22288;-71
2024/01/23 08:50:51;;;;;;;14.10;4.80;;;;;;;4.51;91.32;100504.52;137045;1276;22227;-72
2024/01/23 08:53:52;;;;;;;10.90;4.60;;;;;;;4.69;90.47;100503.13;137123;1276;22346;-73
2024/01/23 08:56:56;;;;;;;;;;;;;;;4.73;89.70;100507.38;137122;1276;22415;-71
2024/01/23 08:59:56;;;;;;;13.50;4.30;;;;;;;5.03;89.91;100511.30;137062;1276;22355;-71
2024/01/23 09:02:57;;;;;;;10.60;4.40;;;;;;;5.40;89.69;100518.19;137064;1276;23151;-71
2024/01/23 09:05:57;;;;;;;;;;;;;;;5.70;88.95;100528.58;137070;1276;22410;-71
2024/01/23 09:08:58;;;;;;;5.60;2.50;;;;;;;5.69;87.09;100528.46;137051;1276;23147;-71
2024/01/23 09:11:59;;;;;;;;;;;;;;;5.62;86.63;100537.96;137084;1276;22380;-71
2024/01/23 09:15:03;;;;;;;14.30;2.90;;;;;;;5.66;86.73;100552.12;137071;1276;22360;-71
2024/01/23 09:18:04;;;;;;;11.10;3.70;;;;;;;5.63;86.46;100561.61;136988;1276;23105;-72
2024/01/23 09:21:05;;;;;;;;;;;;;;;5.55;86.00;100566.27;137098;1276;22406;-71
2024/01/23 09:24:06;;;;;;;12.20;4.50;;;;;;;5.43;85.92;100574.27;137077;1276;23435;-72
2024/01/23 09:27:07;;;;;;;10.60;5.10;;;;;;;5.32;85.81;100578.14;136996;1276;22402;-71
2024/01/23 09:30:08;;;;;;;;;;;;;;;5.23;85.98;100583.20;137060;1276;22414;-71
2024/01/23 09:33:11;;;;;;;9.00;3.50;;;;;;;5.14;85.26;100587.09;136946;1276;259698;-71
2024/01/23 09:36:12;;;;;;;7.90;2.60;;;;;;;5.06;85.67;100598.81;136944;1276;22220;-71
2024/01/23 09:39:13;;;;;;;7.60;2.50;;;;;;;5.03;85.44;100598.70;137110;1276;22404;-71
2024/01/23 09:42:15;;;;;;;6.60;2.40;;;;;;;5.03;85.38;100598.84;137047;1276;23183;-71
2024/01/23 09:45:18;;;;;;;8.00;2.50;;;;;;;5.07;85.13;100603.25;137091;1276;22253;-71
2024/01/23 09:48:19;;;;;;;10.40;2.90;;;;;;;5.09;85.28;100603.25;137115;1276;22341;-71
2024/01/23 09:51:21;;;;;;;8.60;2.70;;;;;;;5.18;85.48;100600.48;137094;1276;22371;-71
2024/01/23 09:54:23;;;;;;;5.90;2.60;;;;;;;5.43;85.66;100601.09;137093;1276;22251;-71
2024/01/23 09:57:24;;;;;;;10.80;4.00;;;;;;;5.64;84.94;100601.22;137065;1276;23087;-71
2024/01/23 10:00:26;;;;;;;9.80;3.40;;;;;;;5.67;84.00;100593.45;137063;1276;23770;-72
2024/01/23 10:03:33;;;;;;;12.10;3.30;;;;;;;5.57;83.71;100598.60;137000;1275;23346;-72
2024/01/23 10:06:34;;;;;;;12.20;4.20;;;;;;;5.49;83.27;100596.30;137099;1276;23089;-71
2024/01/23 10:09:36;;;;;;;10.20;3.40;;;;;;;5.44;83.61;100605.29;137034;1276;23228;-71
2024/01/23 10:12:38;;;;;;;10.30;3.40;;;;;;;5.42;83.34;100601.73;137123;1276;22358;-71
2024/01/23 10:15:41;;;;;;;9.30;3.20;;;;;;;5.45;82.92;100603.23;137096;1276;22521;-72
2024/01/23 10:18:42;;;;;;;8.20;3.20;;;;;;;5.52;83.24;100603.88;137009;1276;22372;-71
2024/01/23 10:21:43;;;;;;;9.70;3.70;;;;;;;5.80;83.27;100609.91;136902;1276;22984;-72
2024/01/23 10:24:44;;;;;;;11.30;3.90;;;;;;;6.05;82.82;100611.80;137104;1276;22355;-71
2024/01/23 10:27:44;;;;;;;;;;;;;;;6.25;82.04;100609.75;136994;1276;22378;-72
2024/01/23 10:30:46;;;;;;;7.10;2.70;;;;;;;6.24;80.88;100608.81;137102;1276;23186;-72
2024/01/23 10:33:47;;;;;;;9.00;3.60;;;;;;;6.38;81.45;100614.36;136811;1276;22339;-72
2024/01/23 10:36:50;;;;;;;;;;;;;;;6.44;81.25;100618.23;137158;1276;23178;-72
2024/01/23 10:39:53;;;;;;;8.50;3.00;;;;;;;6.35;80.50;100621.81;137087;1276;22348;-71
2024/01/23 10:42:55;;;;;;;;;;;;;;;6.26;80.02;100623.94;137122;1269;22386;-72
2024/01/23 10:46:02;;;;;;;10.40;4.20;;;;;;;6.18;79.91;100620.88;137108;1276;23388;-72
2024/01/23 10:49:03;;;;;;;11.10;3.60;;;;;;;6.15;79.82;100621.30;137127;1276;22332;-71
2024/01/23 10:52:05;;;;;;;;;;;;;;;6.18;79.94;100626.66;137143;1276;23451;-72
2024/01/23 10:55:06;;;;;;;9.30;4.10;;;;;;;6.18;79.30;100634.44;137113;1276;23068;-71
2024/01/23 10:58:37;;;;;;;9.30;3.10;;;;;;;6.14;79.47;100632.98;136929;1276;23038;-71
2024/01/23 11:01:42;;;;;;;17.10;4.80;;;;;;;6.07;79.05;100628.27;137093;1276;23504;-71
2024/01/23 11:04:43;;;;;;;10.30;3.60;;;;;;;6.00;78.97;100638.73;137120;1276;23009;-71
2024/01/23 11:08:02;;;;;;;8.40;3.50;;;;;;;5.94;78.71;100640.02;137074;1276;22367;-71
2024/01/23 11:11:14;;;;;;;;;;;;;;;5.89;78.23;100642.19;136972;1271;22991;-71
2024/01/23 11:14:26;;;;;;;11.00;3.00;;;;;;;5.80;78.25;100639.20;137104;1273;22228;-71
2024/01/23 11:17:32;;;;;;;10.70;3.40;;;;;;;5.76;78.29;100642.03;136941;1276;22311;-71
2024/01/23 11:20:33;;;;;;;9.30;3.00;;;;;;;5.76;78.16;100646.73;137126;1273;22446;-71
2024/01/23 11:23:35;;;;;;;;;;;;;;;5.75;78.04;100653.84;137115;1272;22470;-72
2024/01/23 11:26:36;;;;;;;8.90;2.90;;;;;;;5.73;77.96;100651.54;137087;1276;22410;-71
2024/01/23 11:29:36;;;;;;;;;;;;;;;5.72;77.81;100650.73;137108;1276;22373;-71
2024/01/23 11:32:37;;;;;;;7.60;2.70;;;;;;;5.73;77.78;100654.20;136994;1276;22218;-71
2024/01/23 11:36:01;;;;;;;;;;;;;;;5.72;77.18;100649.20;137113;1276;22465;-72
2024/01/23 11:39:02;;;;;;;10.80;4.00;;;;;;;5.67;77.50;100654.83;137122;1273;22252;-71
2024/01/23 11:42:04;;;;;;;9.40;3.20;;;;;;;5.65;77.39;100657.27;137079;1276;22342;-72
2024/01/23 11:45:21;;;;;;;9.20;3.00;;;;;;;5.66;77.85;100650.57;137101;1276;22345;-71
2024/01/23 11:48:22;;;;;;;8.90;3.60;;;;;;;5.68;77.64;100647.41;137064;1276;22371;-71
2024/01/23 11:51:24;;;;;;;;;;;;;;;5.73;77.92;100658.61;137161;1271;22384;-71
2024/01/23 11:54:25;;;;;;;10.00;3.60;;;;;;;5.76;77.52;100659.77;137141;1276;22374;-71
2024/01/23 11:57:25;;;;;;;;;;;;;;;5.73;77.47;100661.42;137120;1276;22375;-73
2024/01/23 12:00:29;;;;;;;10.00;3.30;;;;;;;5.67;77.26;100668.40;137001;1276;22422;-72
2024/01/23 12:03:32;;;;;;;9.90;3.20;;;;;;;5.61;77.26;100663.24;137103;1276;22375;-72
2024/01/23 12:06:33;;;;;;;;;;;;;;;5.60;77.14;100652.42;137110;1276;22420;-72
2024/01/23 12:09:33;;;;;;;12.40;3.50;;;;;;;5.63;77.43;100653.59;137056;1276;22341;-72
2024/01/23 12:12:37;;;;;;;16.80;5.40;;;;;;;5.66;77.66;100659.19;137111;1276;22354;-72
2024/01/23 12:15:38;;;;;;;24.40;7.70;;;;;;;5.65;77.29;100677.45;137083;1270;22354;-72
2024/01/23 12:18:40;;;;;;;31.00;11.80;;;;;;;5.66;77.14;100679.73;137172;1276;22377;-72
2024/01/23 12:21:41;;;;;;;23.00;9.70;;;;;;;5.63;76.91;100672.88;136930;1276;22384;-72
2024/01/23 12:24:42;;;;;;;;;;;;;;;5.59;76.29;100668.45;137125;1276;22404;-71
2024/01/23 12:27:43;;;;;;;;;;;;;;;5.57;76.20;100675.61;137093;1276;22349;-72
2024/01/23 12:30:48;;;;;;;;;;;;;;;5.53;75.93;100663.14;137132;1276;22419;-73
2024/01/23 12:33:49;;;;;;;13.40;4.00;;;;;;;5.49;75.91;100680.45;137086;1270;22368;-73
2024/01/23 12:36:53;;;;;;;13.10;3.80;;;;;;;5.47;75.85;100687.10;137104;1276;22372;-72
2024/01/23 12:39:54;;;;;;;13.70;3.50;;;;;;;5.44;76.12;100687.02;137108;1276;22349;-73
2024/01/23 12:42:56;;;;;;;10.90;3.60;;;;;;;5.43;75.83;100697.27;137125;1271;22355;-74
2024/01/23 12:45:57;;;;;;;11.60;3.20;;;;;;;5.40;75.67;100696.98;136946;1275;22367;-72
2024/01/23 12:49:09;;;;;;;;;;;;;;;5.36;76.08;100699.23;137133;1276;22377;-72
2024/01/23 12:52:17;;;;;;;10.70;4.50;;;;;;;5.31;75.70;100701.55;136909;1276;22470;-73
2024/01/23 12:55:20;;;;;;;15.50;4.10;;;;;;;5.27;75.85;100702.02;137088;1276;22347;-72
2024/01/23 12:58:23;;;;;;;13.30;4.60;;;;;;;5.27;75.62;100699.59;137108;1276;22384;-72
2024/01/23 13:01:24;;;;;;;;;;;;;;;5.26;75.90;100714.05;137125;1276;22866;-73
2024/01/23 13:04:24;;;;;;;19.10;4.90;;;;;;;5.24;75.72;100714.33;137088;1276;22369;-72
2024/01/23 13:07:25;;;;;;;18.50;6.20;;;;;;;5.24;75.89;100718.90;137076;1276;22338;-73
2024/01/23 13:10:26;;;;;;;;;;;;;;;5.26;76.16;100721.55;137096;1276;22380;-73
2024/01/23 13:13:27;;;;;;;15.30;4.10;;;;;;;5.28;75.99;100717.91;137100;1272;22327;-73
2024/01/23 13:16:27;;;;;;;;;;;;;;;5.29;75.84;100721.14;137098;1271;22408;-74
2024/01/23 13:19:28;;;;;;;10.20;3.80;;;;;;;5.29;75.79;100723.06;137090;1276;22347;-72
2024/01/23 13:22:29;;;;;;;;;;;;;;;5.29;75.52;100727.62;137130;1276;22391;-72
2024/01/23 13:25:29;;;;;;;11.70;3.40;;;;;;;5.30;75.53;100741.45;137131;1276;22362;-72
2024/01/23 13:28:30;;;;;;;;;;;;;;;5.28;75.81;100741.20;137152;1272;22391;-73
2024/01/23 13:31:34;;;;;;;12.10;3.10;;;;;;;5.27;75.70;100739.78;137137;1276;22371;-72
2024/01/23 13:34:36;;;;;;;17.40;3.70;;;;;;;5.27;75.64;100739.22;137085;1276;22360;-72
2024/01/23 13:37:37;;;;;;;14.60;5.20;;;;;;;5.25;75.75;100731.79;137148;1276;22437;-74
2024/01/23 13:40:38;;;;;;;14.00;4.40;;;;;;;5.25;75.69;100732.91;137129;1276;22153;-72
2024/01/23 13:43:38;;;;;;;;;;;;;;;5.24;75.49;100740.17;137129;1276;22398;-72
2024/01/23 13:46:42;;;;;;;11.20;3.40;;;;;;;5.23;75.54;100734.23;137091;1276;22297;-71
2024/01/23 13:49:45;;;;;;;19.20;4.00;;;;;;;5.23;75.90;100737.59;137084;1269;22232;-73
2024/01/23 13:52:50;;;;;;;17.00;3.70;;;;;;;5.23;76.00;100744.27;137089;1276;22423;-83
2024/01/23 13:55:51;;;;;;;10.30;4.00;;;;;;;5.18;75.84;100742.84;136922;1274;22361;-73
2024/01/23 13:58:52;;;;;;;;;;;;;;;5.16;75.96;100735.98;137117;1276;22410;-71
2024/01/23 14:01:52;;;;;;;15.70;4.00;;;;;;;5.16;75.77;100731.98;136917;1276;22443;-70
2024/01/23 14:04:53;;;;;;;14.20;4.50;;;;;;;5.16;75.88;100736.90;137088;1276;22391;-72
2024/01/23 14:07:54;;;;;;;14.10;4.50;;;;;;;5.15;76.09;100736.64;137092;1276;22170;-69
2024/01/23 14:10:55;;;;;;;17.00;4.40;;;;;;;5.12;76.29;100743.35;137101;1274;22360;-69
2024/01/23 14:13:56;;;;;;;15.30;4.70;;;;;;;5.11;76.28;100746.23;136931;1276;22342;-79